createdAt,value
2023-04-08T00:01:18.134Z,34.28
2023-04-08T00:05:19.870Z,36.25
2023-04-08T00:09:21.521Z,49.55
2023-04-08T00:13:23.251Z,47.65
2023-04-08T00:17:26.573Z,39.45
2023-04-08T00:21:28.294Z,41.03
2023-04-08T00:25:32.784Z,37.05
2023-04-08T00:29:34.557Z,37.45
2023-04-08T00:33:36.654Z,41.20
2023-04-08T00:37:38.404Z,38.88
2023-04-08T00:41:40.283Z,54.85
2023-04-08T00:45:41.937Z,37.30
2023-04-08T00:49:44.357Z,32.90
2023-04-08T00:53:46.120Z,49.57
2023-04-08T00:57:48.662Z,37.50
2023-04-08T01:02:15.402Z,45.78
2023-04-08T01:06:46.948Z,53.80
2023-04-08T01:10:53.797Z,44.30
2023-04-08T01:15:06.386Z,43.38
2023-04-08T01:19:10.446Z,42.53
2023-04-08T01:23:40.681Z,49.58
2023-04-08T01:27:43.715Z,45.20
2023-04-08T01:31:47.028Z,47.28
2023-04-08T01:35:48.824Z,54.67
2023-04-08T01:39:52.221Z,45.08
2023-04-08T01:43:55.162Z,45.70
2023-04-08T01:47:58.297Z,48.75
2023-04-08T01:52:01.642Z,52.17
2023-04-08T01:56:12.078Z,62.78
2023-04-08T02:00:15.788Z,49.40
2023-04-08T02:04:17.554Z,59.00
2023-04-08T02:08:19.298Z,51.85
2023-04-08T02:12:21.029Z,48.17
2023-04-08T02:16:24.763Z,54.50
2023-04-08T02:20:26.409Z,56.20
2023-04-08T02:24:29.690Z,64.93
2023-04-08T02:28:34.231Z,59.35
2023-04-08T02:32:37.146Z,50.58
2023-04-08T02:36:41.007Z,52.58
2023-04-08T02:40:42.763Z,47.45
2023-04-08T02:44:44.468Z,58.45
2023-04-08T02:48:46.168Z,57.08
2023-04-08T02:52:47.894Z,56.05
2023-04-08T02:56:49.547Z,59.83
2023-04-08T03:00:51.271Z,59.03
2023-04-08T03:04:52.990Z,55.85
2023-04-08T03:08:54.634Z,71.72
2023-04-08T03:12:56.325Z,70.75
2023-04-08T03:16:58.015Z,76.60
2023-04-08T03:21:00.050Z,58.85
2023-04-08T03:25:01.769Z,63.03
2023-04-08T03:29:03.530Z,70.15
2023-04-08T03:33:08.005Z,60.53
2023-04-08T03:37:10.284Z,60.85
2023-04-08T03:41:12.260Z,55.70
2023-04-08T03:45:17.341Z,66.30
2023-04-08T03:49:19.040Z,66.25
2023-04-08T03:53:20.746Z,71.28
2023-04-08T03:57:22.430Z,51.65
2023-04-08T04:01:24.047Z,63.80
2023-04-08T04:05:25.720Z,54.92
2023-04-08T04:09:27.548Z,60.47
2023-04-08T04:13:29.258Z,59.30
2023-04-08T04:17:31.070Z,68.57
2023-04-08T04:21:32.860Z,58.13
2023-04-08T04:25:34.589Z,49.33
2023-04-08T04:29:36.532Z,40.13
2023-04-08T04:33:38.176Z,54.92
2023-04-08T04:37:39.841Z,38.83
2023-04-08T04:41:41.603Z,50.30
2023-04-08T04:45:44.061Z,50.60
2023-04-08T04:49:45.841Z,55.47
2023-04-08T04:53:49.226Z,53.05
2023-04-08T04:57:50.900Z,56.50
2023-04-08T05:01:52.699Z,48.13
2023-04-08T05:05:54.940Z,52.33
2023-04-08T05:09:56.655Z,57.28
2023-04-08T05:13:58.323Z,33.38
2023-04-08T05:18:00.289Z,43.55
2023-04-08T05:22:02.007Z,39.90
2023-04-08T05:26:06.636Z,41.65
2023-04-08T05:30:09.772Z,36.20
2023-04-08T05:38:13.400Z,40.70
2023-04-08T05:42:15.188Z,49.45
2023-04-08T05:46:17.431Z,38.72
2023-04-08T05:50:19.258Z,44.63
2023-04-08T05:54:21.038Z,40.80
2023-04-08T05:58:22.755Z,40.22
2023-04-08T06:02:25.323Z,48.00
2023-04-08T06:06:27.223Z,52.83
2023-04-08T06:10:28.954Z,42.80
2023-04-08T06:14:30.825Z,52.28
2023-04-08T06:18:32.562Z,47.47
2023-04-08T06:22:34.229Z,49.33
2023-04-08T06:26:35.895Z,42.10
2023-04-08T06:30:37.936Z,47.63
2023-04-08T06:34:40.921Z,56.75
2023-04-08T06:38:42.613Z,57.55
2023-04-08T06:42:44.467Z,56.63
2023-04-08T06:46:46.707Z,62.90
2023-04-08T06:50:48.415Z,65.10
2023-04-08T06:54:53.277Z,59.33
2023-04-08T06:58:55.431Z,59.63
2023-04-08T07:02:57.293Z,57.53
2023-04-08T07:06:59.149Z,57.20
2023-04-08T07:11:01.034Z,62.15
2023-04-08T07:15:02.738Z,61.10
2023-04-08T07:19:04.481Z,36.75
2023-04-08T07:23:06.245Z,55.30
2023-04-08T07:27:09.196Z,44.35
2023-04-08T07:31:18.445Z,41.83
2023-04-08T07:35:24.259Z,32.83
2023-04-08T07:39:26.216Z,58.63
2023-04-08T07:43:28.015Z,45.35
2023-04-08T07:47:31.040Z,57.25
2023-04-08T07:51:33.510Z,65.40
2023-04-08T07:55:35.433Z,67.47
2023-04-08T07:59:37.376Z,70.68
2023-04-08T08:03:39.523Z,75.35
2023-04-08T08:07:41.505Z,63.40
2023-04-08T08:11:43.240Z,65.85
2023-04-08T08:15:44.956Z,69.07
2023-04-08T08:19:46.723Z,62.88
2023-04-08T08:23:48.511Z,61.38
2023-04-08T08:27:51.091Z,63.45
2023-04-08T08:31:52.849Z,63.15
2023-04-08T08:35:55.167Z,68.95
2023-04-08T08:39:56.897Z,68.37
2023-04-08T08:44:00.299Z,74.38
2023-04-08T08:48:02.468Z,75.82
2023-04-08T08:52:04.215Z,52.97
2023-04-08T09:00:16.132Z,51.13
2023-04-08T09:04:22.753Z,49.92
2023-04-08T09:08:34.944Z,68.47
2023-04-08T09:12:53.880Z,51.80
2023-04-08T09:16:55.635Z,54.30
2023-04-08T09:20:57.415Z,66.75
2023-04-08T09:24:59.269Z,56.75
2023-04-08T09:29:18.218Z,56.10
2023-04-08T09:33:33.039Z,49.03
2023-04-08T09:37:34.722Z,59.03
2023-04-08T09:41:38.239Z,46.90
2023-04-08T09:45:42.766Z,52.55
2023-04-08T09:49:51.213Z,50.72
2023-04-08T09:54:01.392Z,56.40
2023-04-08T09:58:17.006Z,46.28
2023-04-08T10:02:27.844Z,53.92
2023-04-08T10:06:31.430Z,57.45
2023-04-08T10:10:37.556Z,54.47
2023-04-08T10:14:39.942Z,57.45
2023-04-08T10:18:43.311Z,52.55
2023-04-08T10:22:48.725Z,54.13
2023-04-08T10:26:50.443Z,51.85
2023-04-08T10:30:58.598Z,49.95
2023-04-08T10:35:00.295Z,51.70
2023-04-08T10:39:02.054Z,57.67
2023-04-08T10:43:03.867Z,50.42
2023-04-08T10:47:05.619Z,59.50
2023-04-08T10:51:09.132Z,47.65
2023-04-08T10:55:11.830Z,54.22
2023-04-08T10:59:16.854Z,57.88
2023-04-08T11:03:19.743Z,55.63
2023-04-08T11:07:21.612Z,57.00
2023-04-08T11:11:29.379Z,55.05
2023-04-08T11:15:31.271Z,53.70
2023-04-08T11:19:35.965Z,46.08
2023-04-08T11:23:38.410Z,52.92
2023-04-08T11:27:40.667Z,58.10
2023-04-08T11:31:47.112Z,50.40
2023-04-08T11:35:51.674Z,65.75
2023-04-08T11:39:56.916Z,59.65
2023-04-08T11:43:58.590Z,58.97
2023-04-08T11:48:00.856Z,64.35
2023-04-08T11:52:03.763Z,64.63
2023-04-08T11:56:24.968Z,78.38
2023-04-08T12:00:27.948Z,70.50
2023-04-08T12:08:32.008Z,66.05
2023-04-08T12:12:33.677Z,69.72
2023-04-08T12:16:35.543Z,71.30
2023-04-08T12:20:37.381Z,73.05
2023-04-08T12:24:39.072Z,74.68
2023-04-08T12:28:40.984Z,61.78
2023-04-08T12:32:45.913Z,64.05
2023-04-08T12:36:49.061Z,59.45
2023-04-08T12:44:52.628Z,61.83
2023-04-08T12:49:03.206Z,72.40
2023-04-08T12:53:05.803Z,66.88
2023-04-08T12:57:07.596Z,72.60
2023-04-08T13:01:09.812Z,70.28
2023-04-08T13:05:11.587Z,68.73
2023-04-08T13:09:15.086Z,61.67
2023-04-08T13:13:16.813Z,63.70
2023-04-08T13:17:18.490Z,62.10
2023-04-08T13:21:20.225Z,57.45
2023-04-08T13:25:21.965Z,60.45
2023-04-08T13:29:23.691Z,57.78
2023-04-08T13:33:25.446Z,63.22
2023-04-08T13:37:27.332Z,50.97
2023-04-08T13:41:29.205Z,44.03
2023-04-08T13:45:31.124Z,56.28
2023-04-08T13:49:32.904Z,51.88
2023-04-08T13:53:34.930Z,47.45
2023-04-08T13:57:36.664Z,52.58
2023-04-08T14:01:40.559Z,37.65
2023-04-08T14:05:42.382Z,37.17
2023-04-08T14:09:44.088Z,30.48
2023-04-08T14:13:45.977Z,36.08
2023-04-08T14:17:48.449Z,29.85
2023-04-08T14:21:50.402Z,24.10
2023-04-08T14:25:52.509Z,26.77
2023-04-08T14:29:54.202Z,26.27
2023-04-08T14:34:02.412Z,27.52
2023-04-08T14:38:04.317Z,21.90
2023-04-08T14:42:06.108Z,25.40
2023-04-08T14:46:07.866Z,47.67
2023-04-08T14:50:10.850Z,26.45
2023-04-08T14:54:14.322Z,27.83
2023-04-08T14:58:19.223Z,29.50
2023-04-08T15:02:20.951Z,27.55
2023-04-08T15:06:23.221Z,26.02
2023-04-08T15:10:24.858Z,27.42
2023-04-08T15:14:26.593Z,34.40
2023-04-08T15:18:28.281Z,47.40
2023-04-08T15:22:29.944Z,50.03
2023-04-08T15:26:31.721Z,47.17
2023-04-08T15:30:35.581Z,46.15
2023-04-08T15:34:37.336Z,46.13
2023-04-08T15:38:39.784Z,47.88
2023-04-08T15:42:41.477Z,49.45
2023-04-08T15:46:43.190Z,53.15
2023-04-08T15:50:45.021Z,50.28
2023-04-08T15:54:47.168Z,53.10
2023-04-08T15:58:49.116Z,54.35
2023-04-08T16:02:51.337Z,50.27
2023-04-08T16:06:53.214Z,49.73
2023-04-08T16:11:01.770Z,54.22
2023-04-08T16:15:03.595Z,84.80
2023-04-08T16:19:05.493Z,58.10
2023-04-08T16:23:07.224Z,62.03
2023-04-08T16:27:09.192Z,44.42
2023-04-08T16:31:11.005Z,48.60
2023-04-08T16:35:13.262Z,47.72
2023-04-08T16:39:14.949Z,47.50
2023-04-08T16:43:16.579Z,45.58
2023-04-08T16:47:18.235Z,41.20
2023-04-08T16:51:19.984Z,36.40
2023-04-08T16:55:21.654Z,35.10
2023-04-08T16:59:23.379Z,35.13
2023-04-08T17:03:27.172Z,29.92
2023-04-08T17:07:29.594Z,26.48
2023-04-08T17:11:33.745Z,25.60
2023-04-08T17:15:36.388Z,29.15
2023-04-08T17:19:38.231Z,33.73
2023-04-08T17:23:40.350Z,28.25
2023-04-08T17:27:42.228Z,31.33
2023-04-08T17:31:44.452Z,23.15
2023-04-08T17:35:46.522Z,19.60
2023-04-08T17:39:48.225Z,24.85
2023-04-08T17:43:50.170Z,25.58
2023-04-08T17:47:52.213Z,23.10
2023-04-08T17:51:56.426Z,19.33
2023-04-08T17:55:58.428Z,19.48
2023-04-08T18:00:00.642Z,21.45
2023-04-08T18:04:02.375Z,17.77
2023-04-08T18:08:04.409Z,24.17
2023-04-08T18:12:06.775Z,18.48
2023-04-08T18:16:21.889Z,28.67
2023-04-08T18:20:23.629Z,24.45
2023-04-08T18:24:25.344Z,23.63
2023-04-08T18:28:26.985Z,24.42
2023-04-08T18:32:28.848Z,29.85
2023-04-08T18:36:31.654Z,32.55
2023-04-08T18:40:33.669Z,21.30
2023-04-08T18:44:35.526Z,25.02
2023-04-08T18:48:37.234Z,27.00
2023-04-08T18:52:38.960Z,25.10
2023-04-08T18:56:41.018Z,24.48
2023-04-08T19:00:43.677Z,30.45
2023-04-08T19:04:45.476Z,25.83
2023-04-08T19:08:48.320Z,29.90
2023-04-08T19:12:51.259Z,36.28
2023-04-08T19:16:53.035Z,24.92
2023-04-08T19:20:54.784Z,27.65
2023-04-08T19:24:56.556Z,27.85
2023-04-08T19:28:58.318Z,38.53
2023-04-08T19:33:00.065Z,37.10
2023-04-08T19:37:01.811Z,43.20
2023-04-08T19:41:06.433Z,64.20
2023-04-08T19:45:08.446Z,34.08
2023-04-08T19:49:10.148Z,33.92
2023-04-08T19:53:12.048Z,31.60
2023-04-08T19:57:13.750Z,25.60
2023-04-08T20:01:15.769Z,30.75
2023-04-08T20:05:17.667Z,31.98
2023-04-08T20:09:19.386Z,33.35
2023-04-08T20:13:21.136Z,35.08
2023-04-08T20:17:24.484Z,69.28
2023-04-08T20:21:26.621Z,66.43
2023-04-08T20:25:28.487Z,33.95
2023-04-08T20:29:30.140Z,30.25
2023-04-08T20:33:31.898Z,30.48
2023-04-08T20:37:33.670Z,31.88
2023-04-08T20:41:36.430Z,36.03
2023-04-08T20:45:38.120Z,33.45
2023-04-08T20:49:41.093Z,42.88
2023-04-08T20:53:44.430Z,36.30
2023-04-08T20:57:47.839Z,35.25
2023-04-08T21:05:52.635Z,40.90
2023-04-08T21:09:54.333Z,34.75
2023-04-08T21:13:56.388Z,36.33
2023-04-08T21:17:58.142Z,34.70
2023-04-08T21:21:59.895Z,32.35
2023-04-08T21:26:03.304Z,37.72
2023-04-08T21:30:05.816Z,44.60
2023-04-08T21:34:07.544Z,53.08
2023-04-08T21:38:10.896Z,45.00
2023-04-08T21:42:12.525Z,42.10
2023-04-08T21:46:14.223Z,44.00
2023-04-08T21:50:16.434Z,35.70
2023-04-08T21:54:18.094Z,37.53
2023-04-08T21:58:19.813Z,46.28
2023-04-08T22:02:21.927Z,39.90
2023-04-08T22:06:32.063Z,39.87
2023-04-08T22:10:34.725Z,48.38
2023-04-08T22:14:36.692Z,46.22
2023-04-08T22:18:38.490Z,41.58
2023-04-08T22:22:40.192Z,42.75
2023-04-08T22:26:41.868Z,49.58
2023-04-08T22:30:43.654Z,41.47
2023-04-08T22:34:45.348Z,39.58
2023-04-08T22:38:47.466Z,43.40
2023-04-08T22:42:49.486Z,39.53
2023-04-08T22:46:51.595Z,41.65
2023-04-08T22:50:53.309Z,41.40
2023-04-08T22:54:55.056Z,38.33
2023-04-08T22:58:57.012Z,44.17
2023-04-08T23:02:59.004Z,44.42
2023-04-08T23:07:01.212Z,43.83
2023-04-08T23:11:02.921Z,47.25
2023-04-08T23:15:05.059Z,50.03
2023-04-08T23:19:06.767Z,50.53
2023-04-08T23:23:08.547Z,45.13
2023-04-08T23:27:10.421Z,47.25
2023-04-08T23:31:12.189Z,48.63
2023-04-08T23:35:13.899Z,43.60
2023-04-08T23:39:15.616Z,46.55
2023-04-08T23:43:17.334Z,51.42
2023-04-08T23:47:19.045Z,47.40
2023-04-08T23:51:20.879Z,62.30
2023-04-08T23:55:22.643Z,43.90
2023-04-08T23:59:24.694Z,50.63
